createdAt,value
2023-05-04T00:01:53.904Z,55.10
2023-05-04T00:04:26.347Z,55.72
2023-05-04T00:06:56.752Z,61.92
2023-05-04T00:11:55.602Z,56.78
2023-05-04T00:14:25.445Z,56.38
2023-05-04T00:16:55.093Z,55.10
2023-05-04T00:19:24.766Z,59.13
2023-05-04T00:21:54.454Z,55.95
2023-05-04T00:24:24.150Z,56.83
2023-05-04T00:26:53.885Z,54.58
2023-05-04T00:29:24.080Z,59.28
2023-05-04T00:31:53.890Z,53.92
2023-05-04T00:34:24.864Z,58.85
2023-05-04T00:36:54.675Z,56.92
2023-05-04T00:39:24.816Z,58.70
2023-05-04T00:41:54.589Z,58.08
2023-05-04T00:44:25.470Z,59.53
2023-05-04T00:46:55.413Z,58.55
2023-05-04T00:49:25.708Z,60.40
2023-05-04T00:51:56.232Z,56.33
2023-05-04T00:54:26.225Z,59.63
2023-05-04T00:56:56.216Z,58.33
2023-05-04T00:59:25.908Z,55.75
2023-05-04T01:01:56.000Z,59.58
2023-05-04T01:04:26.395Z,62.17
2023-05-04T01:09:43.521Z,56.42
2023-05-04T01:12:32.317Z,51.97
2023-05-04T01:15:03.412Z,54.92
2023-05-04T01:17:33.218Z,56.90
2023-05-04T01:20:03.109Z,51.53
2023-05-04T01:22:32.905Z,48.60
2023-05-04T01:25:02.891Z,46.90
2023-05-04T01:27:43.414Z,49.63
2023-05-04T01:30:19.855Z,49.75
2023-05-04T01:32:50.158Z,50.95
2023-05-04T01:35:20.011Z,52.53
2023-05-04T01:37:49.782Z,52.42
2023-05-04T01:40:19.473Z,54.20
2023-05-04T01:42:49.189Z,56.97
2023-05-04T01:45:19.024Z,59.50
2023-05-04T01:47:48.805Z,60.22
2023-05-04T01:50:18.607Z,60.67
2023-05-04T01:52:48.334Z,55.88
2023-05-04T01:55:18.037Z,60.70
2023-05-04T01:57:47.831Z,56.75
2023-05-04T02:00:18.320Z,54.38
2023-05-04T02:02:53.868Z,55.53
2023-05-04T02:05:23.719Z,56.72
2023-05-04T02:07:53.711Z,54.67
2023-05-04T02:10:23.463Z,56.42
2023-05-04T02:12:53.784Z,57.70
2023-05-04T02:15:23.691Z,59.05
2023-05-04T02:17:53.482Z,58.90
2023-05-04T02:20:24.158Z,62.17
2023-05-04T02:22:53.867Z,58.63
2023-05-04T02:25:23.573Z,59.25
2023-05-04T02:27:53.698Z,57.92
2023-05-04T02:30:23.393Z,59.03
2023-05-04T02:32:53.101Z,58.58
2023-05-04T02:35:22.882Z,56.55
2023-05-04T02:37:52.706Z,52.80
2023-05-04T02:40:23.210Z,59.75
2023-05-04T02:42:52.906Z,56.70
2023-05-04T02:45:24.461Z,58.03
2023-05-04T02:47:56.521Z,59.33
2023-05-04T02:50:26.265Z,60.20
2023-05-04T02:52:56.106Z,57.15
2023-05-04T02:55:25.797Z,62.95
2023-05-04T02:57:55.537Z,61.15
2023-05-04T03:00:25.404Z,61.28
2023-05-04T03:02:55.192Z,60.45
2023-05-04T03:05:25.135Z,59.45
2023-05-04T03:07:54.851Z,60.22
2023-05-04T03:10:25.725Z,64.97
2023-05-04T03:12:55.513Z,63.65
2023-05-04T03:15:25.529Z,62.50
2023-05-04T03:17:55.326Z,63.10
2023-05-04T03:20:24.998Z,65.90
2023-05-04T03:22:54.773Z,62.58
2023-05-04T03:25:24.485Z,66.88
2023-05-04T03:27:54.288Z,58.63
2023-05-04T03:30:24.087Z,52.03
2023-05-04T03:32:53.856Z,60.97
2023-05-04T03:35:24.873Z,59.45
2023-05-04T03:37:58.652Z,58.13
2023-05-04T03:40:28.343Z,56.30
2023-05-04T03:43:05.071Z,59.08
2023-05-04T03:45:35.033Z,59.13
2023-05-04T03:48:05.703Z,57.90
2023-05-04T03:50:35.403Z,60.35
2023-05-04T03:53:05.050Z,58.38
2023-05-04T03:55:34.822Z,63.35
2023-05-04T03:58:04.856Z,60.30
2023-05-04T04:00:35.256Z,61.28
2023-05-04T04:03:05.012Z,60.55
2023-05-04T04:05:34.831Z,59.00
2023-05-04T04:08:05.286Z,55.15
2023-05-04T04:10:35.093Z,57.60
2023-05-04T04:13:05.103Z,59.22
2023-05-04T04:15:35.594Z,57.70
2023-05-04T04:18:05.349Z,59.47
2023-05-04T04:20:36.105Z,60.60
2023-05-04T04:23:06.042Z,59.25
2023-05-04T04:25:36.736Z,60.85
2023-05-04T04:28:06.656Z,62.00
2023-05-04T04:30:36.962Z,58.28
2023-05-04T04:33:06.830Z,60.33
2023-05-04T04:35:36.483Z,61.03
2023-05-04T04:38:06.648Z,63.28
2023-05-04T04:40:36.433Z,58.08
2023-05-04T04:43:06.390Z,59.13
2023-05-04T04:45:36.781Z,60.75
2023-05-04T04:50:35.773Z,64.78
2023-05-04T04:53:06.808Z,65.18
2023-05-04T04:55:36.485Z,65.45
2023-05-04T04:58:06.348Z,68.53
2023-05-04T05:00:37.191Z,66.00
2023-05-04T05:03:07.135Z,60.92
2023-05-04T05:05:37.350Z,54.83
2023-05-04T05:08:09.284Z,51.72
2023-05-04T05:10:40.103Z,52.08
2023-05-04T05:13:10.916Z,51.95
2023-05-04T05:15:40.894Z,53.50
2023-05-04T05:18:10.615Z,47.70
2023-05-04T05:20:40.738Z,39.10
2023-05-04T05:23:10.656Z,38.58
2023-05-04T05:25:40.652Z,33.78
2023-05-04T05:28:10.707Z,36.08
2023-05-04T05:30:40.568Z,33.15
2023-05-04T05:33:10.656Z,27.95
2023-05-04T05:35:42.184Z,24.88
2023-05-04T05:38:12.385Z,24.50
2023-05-04T05:40:42.047Z,19.70
2023-05-04T05:43:13.616Z,17.25
2023-05-04T05:45:44.337Z,15.30
2023-05-04T05:48:14.053Z,14.68
2023-05-04T05:50:44.062Z,18.15
2023-05-04T05:53:13.854Z,15.27
2023-05-04T05:56:19.262Z,13.55
2023-05-04T05:58:49.088Z,12.73
2023-05-04T06:01:19.052Z,14.88
2023-05-04T06:03:49.026Z,13.95
2023-05-04T06:06:19.077Z,14.10
2023-05-04T06:08:49.087Z,13.07
2023-05-04T06:11:19.231Z,12.98
2023-05-04T06:13:49.190Z,14.07
2023-05-04T06:16:19.037Z,14.10
2023-05-04T06:18:48.919Z,13.77
2023-05-04T06:21:18.547Z,13.38
2023-05-04T06:23:49.529Z,15.43
2023-05-04T06:26:21.616Z,14.77
2023-05-04T06:28:51.834Z,14.43
2023-05-04T06:31:21.634Z,15.65
2023-05-04T06:33:51.746Z,15.75
2023-05-04T06:36:22.034Z,15.25
2023-05-04T06:41:21.624Z,16.05
2023-05-04T06:43:51.576Z,16.05
2023-05-04T06:46:21.717Z,17.23
2023-05-04T06:48:51.883Z,15.90
2023-05-04T06:51:23.914Z,16.33
2023-05-04T06:53:54.160Z,15.23
2023-05-04T06:58:53.366Z,19.13
2023-05-04T07:01:23.506Z,20.52
2023-05-04T07:03:54.033Z,23.70
2023-05-04T07:06:28.122Z,23.05
2023-05-04T07:08:58.072Z,24.85
2023-05-04T07:11:29.582Z,27.15
2023-05-04T07:13:59.412Z,28.08
2023-05-04T07:16:29.665Z,31.42
2023-05-04T07:21:30.044Z,33.90
2023-05-04T07:24:00.066Z,31.77
2023-05-04T07:26:32.791Z,35.13
2023-05-04T07:29:02.796Z,35.20
2023-05-04T07:31:32.858Z,33.65
2023-05-04T07:34:03.129Z,33.10
2023-05-04T07:36:32.882Z,35.03
2023-05-04T07:39:02.769Z,35.47
2023-05-04T07:41:32.520Z,36.53
2023-05-04T07:44:02.639Z,33.92
2023-05-04T07:46:32.615Z,36.08
2023-05-04T07:49:02.550Z,35.63
2023-05-04T07:51:33.565Z,35.83
2023-05-04T07:54:03.429Z,34.30
2023-05-04T07:56:34.300Z,33.85
2023-05-04T07:59:04.159Z,33.22
2023-05-04T08:01:33.924Z,38.15
2023-05-04T08:04:03.913Z,40.47
2023-05-04T08:06:35.380Z,42.17
2023-05-04T08:09:05.105Z,44.03
2023-05-04T08:11:36.352Z,44.45
2023-05-04T08:14:08.012Z,42.40
2023-05-04T08:16:38.137Z,43.15
2023-05-04T08:19:09.379Z,43.80
2023-05-04T08:21:39.119Z,44.05
2023-05-04T08:24:09.212Z,44.75
2023-05-04T08:26:42.558Z,45.83
2023-05-04T08:29:15.103Z,45.25
2023-05-04T08:31:44.950Z,47.55
2023-05-04T08:34:16.032Z,48.60
2023-05-04T08:36:46.017Z,48.42
2023-05-04T08:39:16.294Z,51.08
2023-05-04T08:44:17.582Z,57.00
2023-05-04T08:46:55.289Z,56.60
2023-05-04T08:49:26.548Z,57.30
2023-05-04T08:51:56.311Z,62.80
2023-05-04T08:54:30.667Z,66.70
2023-05-04T08:57:02.812Z,56.55
2023-05-04T08:59:35.095Z,58.90
2023-05-04T09:02:08.453Z,56.55
2023-05-04T09:04:38.672Z,57.63
2023-05-04T09:09:41.182Z,49.25
2023-05-04T09:12:11.350Z,47.28
2023-05-04T09:17:29.581Z,44.70
2023-05-04T09:20:03.013Z,47.80
2023-05-04T09:22:33.665Z,44.50
2023-05-04T09:25:12.073Z,44.35
2023-05-04T09:27:44.598Z,42.80
2023-05-04T09:30:16.679Z,47.60
2023-05-04T09:32:50.315Z,43.80
2023-05-04T09:35:31.895Z,43.92
2023-05-04T09:38:04.097Z,43.95
2023-05-04T09:40:34.979Z,45.08
2023-05-04T09:43:08.232Z,43.13
2023-05-04T09:45:44.571Z,46.60
2023-05-04T09:48:27.353Z,49.70
2023-05-04T09:50:58.443Z,48.42
2023-05-04T09:53:29.422Z,45.85
2023-05-04T09:56:14.038Z,44.80
2023-05-04T09:58:45.852Z,45.78
2023-05-04T10:01:16.040Z,47.80
2023-05-04T10:03:48.889Z,40.97
2023-05-04T10:06:19.396Z,44.28
2023-05-04T10:08:51.095Z,39.13
2023-05-04T10:11:27.825Z,41.28
2023-05-04T10:14:01.887Z,41.35
2023-05-04T10:16:39.585Z,36.88
2023-05-04T10:19:27.313Z,30.70
2023-05-04T10:22:15.405Z,33.05
2023-05-04T10:25:04.115Z,36.33
2023-05-04T10:27:42.563Z,34.40
2023-05-04T10:30:15.909Z,21.30
2023-05-04T10:32:46.554Z,20.05
2023-05-04T10:35:20.209Z,19.70
2023-05-04T10:37:57.563Z,18.90
2023-05-04T10:40:36.176Z,17.40
2023-05-04T10:43:06.959Z,18.80
2023-05-04T10:45:44.027Z,20.35
2023-05-04T10:48:15.044Z,31.05
2023-05-04T10:50:54.246Z,36.60
2023-05-04T10:53:34.634Z,35.83
2023-05-04T10:56:04.451Z,35.83
2023-05-04T10:58:35.314Z,36.78
2023-05-04T11:01:15.049Z,38.90
2023-05-04T11:03:45.175Z,39.20
2023-05-04T11:08:44.876Z,35.97
2023-05-04T11:11:15.580Z,35.08
2023-05-04T11:13:48.698Z,35.33
2023-05-04T11:16:29.227Z,22.20
2023-05-04T11:19:11.973Z,17.35
2023-05-04T11:21:43.179Z,17.13
2023-05-04T11:24:13.406Z,15.90
2023-05-04T11:26:51.369Z,15.45
2023-05-04T11:29:22.498Z,16.38
2023-05-04T11:31:58.863Z,17.35
2023-05-04T11:34:29.437Z,18.02
2023-05-04T11:37:00.601Z,17.38
2023-05-04T11:39:30.365Z,19.52
2023-05-04T11:42:04.321Z,18.35
2023-05-04T11:44:40.552Z,18.35
2023-05-04T11:47:10.785Z,18.45
2023-05-04T11:49:42.045Z,19.58
2023-05-04T11:52:12.330Z,20.05
2023-05-04T11:54:42.437Z,20.08
2023-05-04T11:59:52.003Z,21.65
2023-05-04T12:02:21.963Z,19.00
2023-05-04T12:04:51.945Z,21.02
2023-05-04T12:07:21.937Z,22.42
2023-05-04T12:09:52.123Z,22.42
2023-05-04T12:14:58.462Z,23.73
2023-05-04T12:17:28.381Z,24.90
2023-05-04T12:19:59.891Z,25.48
2023-05-04T12:22:30.566Z,24.67
2023-05-04T12:25:03.605Z,25.35
2023-05-04T12:27:36.095Z,25.30
2023-05-04T12:30:05.863Z,23.48
2023-05-04T12:32:37.454Z,27.13
2023-05-04T12:35:08.268Z,24.35
2023-05-04T12:37:40.361Z,25.65
2023-05-04T12:40:27.248Z,25.52
2023-05-04T12:42:58.255Z,26.77
2023-05-04T12:47:57.664Z,25.20
2023-05-04T12:50:31.691Z,26.10
2023-05-04T12:53:01.594Z,29.40
2023-05-04T12:55:31.526Z,28.48
2023-05-04T12:58:01.178Z,34.30
2023-05-04T13:00:33.132Z,30.73
2023-05-04T13:03:03.319Z,33.85
2023-05-04T13:08:02.647Z,34.42
2023-05-04T13:10:34.077Z,32.55
2023-05-04T13:13:06.310Z,34.75
2023-05-04T13:15:36.576Z,32.80
2023-05-04T13:20:36.932Z,36.92
2023-05-04T13:23:07.026Z,38.15
2023-05-04T13:25:36.809Z,38.13
2023-05-04T13:28:07.079Z,38.05
2023-05-04T13:33:16.850Z,43.58
2023-05-04T13:35:59.213Z,48.67
2023-05-04T13:38:29.316Z,47.15
2023-05-04T13:40:59.244Z,48.95
2023-05-04T13:43:36.188Z,53.97
2023-05-04T13:46:06.756Z,59.10
2023-05-04T13:48:36.920Z,56.17
2023-05-04T13:51:12.996Z,60.78
2023-05-04T13:53:43.387Z,65.45
2023-05-04T13:56:13.620Z,63.70
2023-05-04T14:01:12.728Z,56.67
2023-05-04T14:03:42.776Z,51.38
2023-05-04T14:06:12.987Z,53.92
2023-05-04T14:08:43.678Z,50.22
2023-05-04T14:11:13.804Z,49.67
2023-05-04T14:13:43.693Z,50.42
2023-05-04T14:16:13.721Z,50.50
2023-05-04T14:18:43.564Z,51.15
2023-05-04T14:21:13.633Z,51.22
2023-05-04T14:23:43.801Z,50.20
2023-05-04T14:26:13.691Z,48.25
2023-05-04T14:28:45.016Z,50.08
2023-05-04T14:31:14.690Z,53.58
2023-05-04T14:33:45.142Z,53.20
2023-05-04T14:36:15.547Z,55.67
2023-05-04T14:38:45.639Z,55.58
2023-05-04T14:41:16.637Z,54.28
2023-05-04T14:43:46.741Z,54.03
2023-05-04T14:46:16.869Z,57.45
2023-05-04T14:48:47.429Z,56.25
2023-05-04T14:51:24.446Z,60.75
2023-05-04T14:53:54.453Z,60.72
2023-05-04T14:56:25.226Z,57.28
2023-05-04T14:58:58.811Z,57.90
2023-05-04T15:01:28.674Z,60.15
2023-05-04T15:03:58.995Z,88.82
2023-05-04T15:08:58.797Z,63.03
2023-05-04T15:11:28.750Z,59.78
2023-05-04T15:14:00.538Z,60.45
2023-05-04T15:16:33.802Z,56.65
2023-05-04T15:19:04.501Z,61.47
2023-05-04T15:21:34.760Z,57.03
2023-05-04T15:26:45.342Z,64.32
2023-05-04T15:29:15.458Z,65.10
2023-05-04T15:31:45.714Z,61.97
2023-05-04T15:36:47.165Z,60.05
2023-05-04T15:39:17.706Z,62.70
2023-05-04T15:41:47.856Z,61.42
2023-05-04T15:44:17.854Z,62.95
2023-05-04T15:46:48.131Z,61.22
2023-05-04T15:51:47.955Z,57.58
2023-05-04T15:54:20.817Z,62.13
2023-05-04T15:56:51.440Z,55.60
2023-05-04T15:59:21.892Z,60.35
2023-05-04T16:01:51.984Z,60.22
2023-05-04T16:04:24.159Z,60.63
2023-05-04T16:06:54.287Z,58.03
2023-05-04T16:09:24.398Z,61.45
2023-05-04T16:11:54.579Z,59.85
2023-05-04T16:14:26.337Z,63.92
2023-05-04T16:16:57.182Z,63.42
2023-05-04T16:19:27.904Z,63.78
2023-05-04T16:21:58.090Z,64.63
2023-05-04T16:24:28.514Z,66.07
2023-05-04T16:29:27.984Z,63.88
2023-05-04T16:31:57.843Z,62.33
2023-05-04T16:34:27.556Z,68.57
2023-05-04T16:36:57.733Z,69.40
2023-05-04T16:39:36.066Z,68.63
2023-05-04T16:42:08.093Z,66.10
2023-05-04T16:44:38.498Z,67.97
2023-05-04T16:49:38.828Z,65.20
2023-05-04T16:52:11.874Z,65.45
2023-05-04T16:54:41.912Z,66.13
2023-05-04T16:57:11.789Z,68.78
2023-05-04T16:59:41.750Z,71.95
2023-05-04T17:02:11.794Z,63.05
2023-05-04T17:04:42.328Z,70.53
2023-05-04T17:07:12.386Z,68.63
2023-05-04T17:09:42.944Z,69.15
2023-05-04T17:12:13.166Z,67.32
2023-05-04T17:14:43.513Z,66.97
2023-05-04T17:19:43.753Z,69.80
2023-05-04T17:22:13.938Z,71.75
2023-05-04T17:24:45.412Z,73.78
2023-05-04T17:27:16.061Z,71.40
2023-05-04T17:29:46.799Z,71.63
2023-05-04T17:32:17.216Z,71.43
2023-05-04T17:34:47.817Z,68.20
2023-05-04T17:37:17.628Z,66.43
2023-05-04T17:39:48.749Z,69.32
2023-05-04T17:42:18.666Z,69.82
2023-05-04T17:44:48.618Z,67.10
2023-05-04T17:47:18.664Z,67.90
2023-05-04T17:49:49.265Z,67.53
2023-05-04T17:52:19.159Z,64.43
2023-05-04T17:54:48.833Z,63.30
2023-05-04T17:57:18.655Z,63.70
2023-05-04T17:59:55.330Z,62.70
2023-05-04T18:02:24.982Z,66.18
2023-05-04T18:04:54.938Z,63.45
2023-05-04T18:07:24.654Z,64.80
2023-05-04T18:09:55.620Z,63.42
2023-05-04T18:12:26.070Z,64.88
2023-05-04T18:14:56.331Z,65.32
2023-05-04T18:17:28.730Z,65.72
2023-05-04T18:20:02.035Z,64.22
2023-05-04T18:22:32.712Z,59.78
2023-05-04T18:25:03.681Z,62.53
2023-05-04T18:27:35.017Z,64.65
2023-05-04T18:30:06.137Z,61.05
2023-05-04T18:32:36.207Z,60.17
2023-05-04T18:35:06.184Z,63.28
2023-05-04T18:37:35.854Z,61.92
2023-05-04T18:40:06.737Z,64.47
2023-05-04T18:42:36.680Z,65.15
2023-05-04T18:45:06.851Z,65.15
2023-05-04T18:47:36.985Z,63.00
2023-05-04T18:50:07.249Z,60.72
2023-05-04T18:52:37.148Z,58.85
2023-05-04T18:55:08.048Z,58.33
2023-05-04T18:57:38.018Z,56.83
2023-05-04T19:00:08.443Z,55.53
2023-05-04T19:02:39.440Z,57.05
2023-05-04T19:05:09.765Z,55.00
2023-05-04T19:07:40.461Z,51.97
2023-05-04T19:10:10.594Z,53.35
2023-05-04T19:12:40.346Z,51.50
2023-05-04T19:15:11.363Z,51.78
2023-05-04T19:17:42.128Z,56.20
2023-05-04T19:20:13.173Z,53.75
2023-05-04T19:22:42.984Z,50.85
2023-05-04T19:25:17.820Z,49.15
2023-05-04T19:27:57.016Z,49.75
2023-05-04T19:30:26.658Z,56.22
2023-05-04T19:32:56.767Z,51.47
2023-05-04T19:35:26.581Z,59.20
2023-05-04T19:37:56.240Z,61.05
2023-05-04T19:40:26.074Z,62.42
2023-05-04T19:42:55.749Z,63.58
2023-05-04T19:45:25.485Z,66.38
2023-05-04T19:47:55.209Z,66.15
2023-05-04T19:50:24.907Z,59.85
2023-05-04T19:52:54.550Z,58.65
2023-05-04T19:55:24.308Z,59.92
2023-05-04T19:57:54.657Z,56.03
2023-05-04T20:00:25.569Z,52.75
2023-05-04T20:02:55.548Z,56.42
2023-05-04T20:05:25.303Z,55.80
2023-05-04T20:07:55.046Z,59.50
2023-05-04T20:10:24.743Z,58.25
2023-05-04T20:12:54.518Z,62.67
2023-05-04T20:15:24.231Z,65.85
2023-05-04T20:17:54.180Z,60.40
2023-05-04T20:20:24.218Z,59.58
2023-05-04T20:22:55.126Z,59.45
2023-05-04T20:25:25.287Z,58.53
2023-05-04T20:27:55.545Z,58.70
2023-05-04T20:30:26.439Z,56.78
2023-05-04T20:32:56.172Z,56.83
2023-05-04T20:35:26.102Z,58.53
2023-05-04T20:37:56.058Z,57.22
2023-05-04T20:40:25.731Z,56.13
2023-05-04T20:42:55.435Z,58.47
2023-05-04T20:45:25.134Z,57.75
2023-05-04T20:47:54.881Z,59.35
2023-05-04T20:50:24.687Z,58.95
2023-05-04T20:52:54.358Z,62.00
2023-05-04T20:55:24.966Z,59.55
2023-05-04T20:57:54.654Z,57.28
2023-05-04T21:00:26.218Z,62.45
2023-05-04T21:02:56.313Z,62.75
2023-05-04T21:05:26.133Z,57.42
2023-05-04T21:07:56.229Z,56.80
2023-05-04T21:10:26.602Z,60.55
2023-05-04T21:12:59.302Z,63.55
2023-05-04T21:15:28.966Z,59.63
2023-05-04T21:17:58.752Z,58.50
2023-05-04T21:20:28.483Z,59.55
2023-05-04T21:22:59.268Z,55.50
2023-05-04T21:25:28.933Z,57.55
2023-05-04T21:28:03.228Z,58.30
2023-05-04T21:30:33.044Z,55.45
2023-05-04T21:33:02.927Z,54.10
2023-05-04T21:35:33.082Z,52.88
2023-05-04T21:38:02.876Z,54.15
2023-05-04T21:40:33.252Z,53.25
2023-05-04T21:43:03.634Z,54.70
2023-05-04T21:45:34.564Z,56.17
2023-05-04T21:48:05.380Z,54.95
2023-05-04T21:50:36.597Z,58.70
2023-05-04T21:55:35.454Z,67.60
2023-05-04T21:58:06.045Z,84.75
2023-05-04T22:00:35.816Z,92.03
2023-05-04T22:03:05.754Z,91.72
2023-05-04T22:05:35.576Z,91.55
2023-05-04T22:08:05.518Z,90.38
2023-05-04T22:10:38.026Z,91.13
2023-05-04T22:13:07.813Z,95.45
2023-05-04T22:15:49.809Z,95.10
2023-05-04T22:18:22.147Z,91.47
2023-05-04T22:20:52.503Z,90.40
2023-05-04T22:23:22.259Z,94.32
2023-05-04T22:25:51.990Z,94.43
2023-05-04T22:28:21.753Z,90.38
2023-05-04T22:30:51.481Z,90.82
2023-05-04T22:33:21.085Z,69.28
2023-05-04T22:35:51.948Z,70.47
2023-05-04T22:38:21.596Z,71.07
2023-05-04T22:40:52.505Z,74.40
2023-05-04T22:43:23.157Z,74.82
2023-05-04T22:45:52.842Z,76.85
2023-05-04T22:48:22.719Z,80.88
2023-05-04T22:50:52.681Z,79.60
2023-05-04T22:53:23.027Z,81.80
2023-05-04T22:55:52.756Z,84.90
2023-05-04T22:58:23.789Z,90.70
2023-05-04T23:00:54.284Z,94.28
2023-05-04T23:05:53.136Z,98.57
2023-05-04T23:08:22.824Z,96.80
2023-05-04T23:10:52.465Z,104.22
2023-05-04T23:13:22.391Z,98.05
2023-05-04T23:15:52.131Z,98.57
2023-05-04T23:18:21.755Z,105.45
2023-05-04T23:20:51.448Z,100.68
2023-05-04T23:23:21.102Z,101.35
2023-05-04T23:25:50.728Z,105.28
2023-05-04T23:28:20.465Z,109.32
2023-05-04T23:30:50.155Z,108.00
2023-05-04T23:33:19.836Z,111.35
2023-05-04T23:35:49.605Z,105.25
2023-05-04T23:38:19.592Z,110.85
2023-05-04T23:40:49.324Z,108.20
2023-05-04T23:43:19.070Z,106.18
2023-05-04T23:45:48.896Z,107.15
2023-05-04T23:48:18.658Z,95.88
2023-05-04T23:50:58.337Z,98.13
2023-05-04T23:53:28.300Z,94.07
2023-05-04T23:56:03.794Z,93.78
2023-05-04T23:58:34.584Z,95.28
